sensor_id;sensor_type;location;lat;lon;timestamp;temperature;humidity
25192;DHT22;13143;50.924;5.320;2022-09-09T00:01:33;18.40;99.90
25192;DHT22;13143;50.924;5.320;2022-09-09T00:06:55;18.30;99.90
25192;DHT22;13143;50.924;5.320;2022-09-09T00:09:25;18.30;99.90
25192;DHT22;13143;50.924;5.320;2022-09-09T00:11:57;18.30;99.90
25192;DHT22;13143;50.924;5.320;2022-09-09T00:14:45;18.30;99.90
25192;DHT22;13143;50.924;5.320;2022-09-09T00:17:22;18.30;99.90
25192;DHT22;13143;50.924;5.320;2022-09-09T00:19:56;18.30;99.90
25192;DHT22;13143;50.924;5.320;2022-09-09T00:22:28;18.20;99.90
25192;DHT22;13143;50.924;5.320;2022-09-09T00:25:11;18.20;99.90
25192;DHT22;13143;50.924;5.320;2022-09-09T00:27:48;18.20;99.90
25192;DHT22;13143;50.924;5.320;2022-09-09T00:30:26;18.20;99.90
25192;DHT22;13143;50.924;5.320;2022-09-09T00:33:01;18.20;99.90
25192;DHT22;13143;50.924;5.320;2022-09-09T00:35:36;18.20;99.90
25192;DHT22;13143;50.924;5.320;2022-09-09T00:38:13;18.20;99.90
25192;DHT22;13143;50.924;5.320;2022-09-09T00:43:37;18.20;99.90
25192;DHT22;13143;50.924;5.320;2022-09-09T00:46:38;18.20;99.90
25192;DHT22;13143;50.924;5.320;2022-09-09T00:54:53;18.10;99.90
25192;DHT22;13143;50.924;5.320;2022-09-09T00:57:29;18.10;99.90
25192;DHT22;13143;50.924;5.320;2022-09-09T01:00:21;18.10;99.90
25192;DHT22;13143;50.924;5.320;2022-09-09T01:08:52;18.10;99.90
25192;DHT22;13143;50.924;5.320;2022-09-09T01:11:37;18.00;99.90
25192;DHT22;13143;50.924;5.320;2022-09-09T01:14:29;18.00;99.90
25192;DHT22;13143;50.924;5.320;2022-09-09T01:16:59;18.00;99.90
25192;DHT22;13143;50.924;5.320;2022-09-09T01:22:50;18.00;99.90
25192;DHT22;13143;50.924;5.320;2022-09-09T01:28:21;18.00;99.90
25192;DHT22;13143;50.924;5.320;2022-09-09T01:30:48;18.00;99.90
25192;DHT22;13143;50.924;5.320;2022-09-09T01:33:16;17.90;99.90
25192;DHT22;13143;50.924;5.320;2022-09-09T01:35:59;17.90;99.90
25192;DHT22;13143;50.924;5.320;2022-09-09T01:38:26;17.90;99.90
25192;DHT22;13143;50.924;5.320;2022-09-09T01:40:53;17.80;99.90
25192;DHT22;13143;50.924;5.320;2022-09-09T01:43:23;17.80;99.90
25192;DHT22;13143;50.924;5.320;2022-09-09T01:45:53;17.80;99.90
25192;DHT22;13143;50.924;5.320;2022-09-09T01:48:21;17.80;99.90
25192;DHT22;13143;50.924;5.320;2022-09-09T01:50:47;17.80;99.90
25192;DHT22;13143;50.924;5.320;2022-09-09T01:53:14;17.70;99.90
25192;DHT22;13143;50.924;5.320;2022-09-09T01:55:48;17.70;99.90
25192;DHT22;13143;50.924;5.320;2022-09-09T01:58:31;17.70;99.90
25192;DHT22;13143;50.924;5.320;2022-09-09T02:03:38;17.70;99.90
25192;DHT22;13143;50.924;5.320;2022-09-09T02:06:21;17.70;99.90
25192;DHT22;13143;50.924;5.320;2022-09-09T02:08:53;17.70;99.90
25192;DHT22;13143;50.924;5.320;2022-09-09T02:11:22;17.70;99.90
25192;DHT22;13143;50.924;5.320;2022-09-09T02:13:52;17.60;99.90
25192;DHT22;13143;50.924;5.320;2022-09-09T02:16:24;17.60;99.90
25192;DHT22;13143;50.924;5.320;2022-09-09T02:19:02;17.60;99.90
25192;DHT22;13143;50.924;5.320;2022-09-09T02:21:32;17.60;99.90
25192;DHT22;13143;50.924;5.320;2022-09-09T02:24:03;17.60;99.90
25192;DHT22;13143;50.924;5.320;2022-09-09T02:26:32;17.60;99.90
25192;DHT22;13143;50.924;5.320;2022-09-09T02:29:02;17.60;99.90
25192;DHT22;13143;50.924;5.320;2022-09-09T02:31:28;17.60;99.90
25192;DHT22;13143;50.924;5.320;2022-09-09T02:33:58;17.50;99.90
25192;DHT22;13143;50.924;5.320;2022-09-09T02:36:27;17.60;99.90
25192;DHT22;13143;50.924;5.320;2022-09-09T02:38:55;17.50;99.90
25192;DHT22;13143;50.924;5.320;2022-09-09T02:41:26;17.50;99.90
25192;DHT22;13143;50.924;5.320;2022-09-09T02:43:53;17.50;99.90
25192;DHT22;13143;50.924;5.320;2022-09-09T02:49:03;17.50;99.90
25192;DHT22;13143;50.924;5.320;2022-09-09T02:54:32;17.40;99.90
25192;DHT22;13143;50.924;5.320;2022-09-09T02:59:31;17.40;99.90
25192;DHT22;13143;50.924;5.320;2022-09-09T03:01:56;17.40;99.90
25192;DHT22;13143;50.924;5.320;2022-09-09T03:04:22;17.40;99.90
25192;DHT22;13143;50.924;5.320;2022-09-09T03:06:50;17.40;99.90
25192;DHT22;13143;50.924;5.320;2022-09-09T03:09:16;17.40;99.90
25192;DHT22;13143;50.924;5.320;2022-09-09T03:11:42;17.40;99.90
25192;DHT22;13143;50.924;5.320;2022-09-09T03:14:08;17.40;99.90
25192;DHT22;13143;50.924;5.320;2022-09-09T03:16:34;17.40;99.90
25192;DHT22;13143;50.924;5.320;2022-09-09T03:19:00;17.40;99.90
25192;DHT22;13143;50.924;5.320;2022-09-09T03:21:26;17.40;99.90
25192;DHT22;13143;50.924;5.320;2022-09-09T03:23:52;17.40;99.90
25192;DHT22;13143;50.924;5.320;2022-09-09T03:26:17;17.40;99.90
25192;DHT22;13143;50.924;5.320;2022-09-09T03:28:43;17.40;99.90
25192;DHT22;13143;50.924;5.320;2022-09-09T03:31:10;17.40;99.90
25192;DHT22;13143;50.924;5.320;2022-09-09T03:33:39;17.40;99.90
25192;DHT22;13143;50.924;5.320;2022-09-09T03:36:06;17.40;99.90
25192;DHT22;13143;50.924;5.320;2022-09-09T03:38:34;17.40;99.90
25192;DHT22;13143;50.924;5.320;2022-09-09T03:41:00;17.40;99.90
25192;DHT22;13143;50.924;5.320;2022-09-09T03:43:27;17.40;99.90
25192;DHT22;13143;50.924;5.320;2022-09-09T03:45:54;17.40;99.90
25192;DHT22;13143;50.924;5.320;2022-09-09T03:48:22;17.40;99.90
25192;DHT22;13143;50.924;5.320;2022-09-09T03:50:50;17.40;99.90
25192;DHT22;13143;50.924;5.320;2022-09-09T03:53:17;17.40;99.90
25192;DHT22;13143;50.924;5.320;2022-09-09T03:55:52;17.40;99.90
25192;DHT22;13143;50.924;5.320;2022-09-09T03:58:21;17.40;99.90
25192;DHT22;13143;50.924;5.320;2022-09-09T04:01:02;17.40;99.90
25192;DHT22;13143;50.924;5.320;2022-09-09T04:03:29;17.40;99.90
25192;DHT22;13143;50.924;5.320;2022-09-09T04:05:56;17.40;99.90
25192;DHT22;13143;50.924;5.320;2022-09-09T04:08:23;17.40;99.90
25192;DHT22;13143;50.924;5.320;2022-09-09T04:10:52;17.40;99.90
25192;DHT22;13143;50.924;5.320;2022-09-09T04:13:19;17.40;99.90
25192;DHT22;13143;50.924;5.320;2022-09-09T04:15:51;17.40;99.90
25192;DHT22;13143;50.924;5.320;2022-09-09T04:18:17;17.40;99.90
25192;DHT22;13143;50.924;5.320;2022-09-09T04:20:42;17.40;99.90
25192;DHT22;13143;50.924;5.320;2022-09-09T04:23:09;17.40;99.90
25192;DHT22;13143;50.924;5.320;2022-09-09T04:25:34;17.40;99.90
25192;DHT22;13143;50.924;5.320;2022-09-09T04:28:00;17.40;99.90
25192;DHT22;13143;50.924;5.320;2022-09-09T04:30:26;17.40;99.90
25192;DHT22;13143;50.924;5.320;2022-09-09T04:32:52;17.40;99.90
25192;DHT22;13143;50.924;5.320;2022-09-09T04:35:18;17.40;99.90
25192;DHT22;13143;50.924;5.320;2022-09-09T04:37:45;17.40;99.90
25192;DHT22;13143;50.924;5.320;2022-09-09T04:40:12;17.40;99.90
25192;DHT22;13143;50.924;5.320;2022-09-09T04:42:38;17.30;99.90
25192;DHT22;13143;50.924;5.320;2022-09-09T04:45:05;17.30;99.90
25192;DHT22;13143;50.924;5.320;2022-09-09T04:47:32;17.30;99.90
25192;DHT22;13143;50.924;5.320;2022-09-09T04:49:59;17.30;99.90
25192;DHT22;13143;50.924;5.320;2022-09-09T04:52:25;17.30;99.90
25192;DHT22;13143;50.924;5.320;2022-09-09T04:54:51;17.30;99.90
25192;DHT22;13143;50.924;5.320;2022-09-09T04:57:19;17.30;99.90
25192;DHT22;13143;50.924;5.320;2022-09-09T04:59:45;17.30;99.90
25192;DHT22;13143;50.924;5.320;2022-09-09T05:02:11;17.30;99.90
25192;DHT22;13143;50.924;5.320;2022-09-09T05:04:37;17.30;99.90
25192;DHT22;13143;50.924;5.320;2022-09-09T05:07:03;17.30;99.90
25192;DHT22;13143;50.924;5.320;2022-09-09T05:09:28;17.20;99.90
25192;DHT22;13143;50.924;5.320;2022-09-09T05:11:54;17.20;99.90
25192;DHT22;13143;50.924;5.320;2022-09-09T05:14:21;17.20;99.90
25192;DHT22;13143;50.924;5.320;2022-09-09T05:16:48;17.30;99.90
25192;DHT22;13143;50.924;5.320;2022-09-09T05:19:15;17.20;99.90
25192;DHT22;13143;50.924;5.320;2022-09-09T05:21:44;17.20;99.90
25192;DHT22;13143;50.924;5.320;2022-09-09T05:24:10;17.20;99.90
25192;DHT22;13143;50.924;5.320;2022-09-09T05:26:36;17.20;99.90
25192;DHT22;13143;50.924;5.320;2022-09-09T05:29:02;17.20;99.90
25192;DHT22;13143;50.924;5.320;2022-09-09T05:31:30;17.20;99.90
25192;DHT22;13143;50.924;5.320;2022-09-09T05:33:56;17.10;99.90
25192;DHT22;13143;50.924;5.320;2022-09-09T05:36:22;17.20;99.90
25192;DHT22;13143;50.924;5.320;2022-09-09T05:38:49;17.10;99.90
25192;DHT22;13143;50.924;5.320;2022-09-09T05:41:15;17.10;99.90
25192;DHT22;13143;50.924;5.320;2022-09-09T05:43:43;17.10;99.90
25192;DHT22;13143;50.924;5.320;2022-09-09T05:46:17;17.10;99.90
25192;DHT22;13143;50.924;5.320;2022-09-09T05:48:44;17.20;99.90
25192;DHT22;13143;50.924;5.320;2022-09-09T05:51:23;17.10;99.90
25192;DHT22;13143;50.924;5.320;2022-09-09T05:53:52;17.20;99.90
25192;DHT22;13143;50.924;5.320;2022-09-09T05:56:20;17.10;99.90
25192;DHT22;13143;50.924;5.320;2022-09-09T05:58:48;17.10;99.90
25192;DHT22;13143;50.924;5.320;2022-09-09T06:01:16;17.10;99.90
25192;DHT22;13143;50.924;5.320;2022-09-09T06:03:43;17.10;99.90
25192;DHT22;13143;50.924;5.320;2022-09-09T06:06:13;17.20;99.90
25192;DHT22;13143;50.924;5.320;2022-09-09T06:08:41;17.10;99.90
25192;DHT22;13143;50.924;5.320;2022-09-09T06:11:10;17.20;99.90
25192;DHT22;13143;50.924;5.320;2022-09-09T06:13:36;17.20;99.90
25192;DHT22;13143;50.924;5.320;2022-09-09T06:16:08;17.20;99.90
25192;DHT22;13143;50.924;5.320;2022-09-09T06:18:34;17.20;99.90
25192;DHT22;13143;50.924;5.320;2022-09-09T06:21:04;17.20;99.90
25192;DHT22;13143;50.924;5.320;2022-09-09T06:23:35;17.20;99.90
25192;DHT22;13143;50.924;5.320;2022-09-09T06:26:11;17.20;99.90
25192;DHT22;13143;50.924;5.320;2022-09-09T06:28:38;17.20;99.90
25192;DHT22;13143;50.924;5.320;2022-09-09T06:31:09;17.20;99.90
25192;DHT22;13143;50.924;5.320;2022-09-09T06:33:41;17.20;99.90
25192;DHT22;13143;50.924;5.320;2022-09-09T06:36:15;17.20;99.90
25192;DHT22;13143;50.924;5.320;2022-09-09T06:38:41;17.20;99.90
25192;DHT22;13143;50.924;5.320;2022-09-09T06:41:09;17.30;99.90
25192;DHT22;13143;50.924;5.320;2022-09-09T06:43:36;17.30;99.90
25192;DHT22;13143;50.924;5.320;2022-09-09T06:48:31;17.30;99.90
25192;DHT22;13143;50.924;5.320;2022-09-09T06:51:05;17.30;99.90
25192;DHT22;13143;50.924;5.320;2022-09-09T06:53:32;17.30;99.90
25192;DHT22;13143;50.924;5.320;2022-09-09T06:56:21;17.30;99.90
25192;DHT22;13143;50.924;5.320;2022-09-09T06:58:47;17.30;99.90
25192;DHT22;13143;50.924;5.320;2022-09-09T07:01:18;17.30;99.90
25192;DHT22;13143;50.924;5.320;2022-09-09T07:03:47;17.40;99.90
25192;DHT22;13143;50.924;5.320;2022-09-09T07:06:22;17.40;99.90
25192;DHT22;13143;50.924;5.320;2022-09-09T07:08:54;17.40;99.90
25192;DHT22;13143;50.924;5.320;2022-09-09T07:11:21;17.40;99.90
25192;DHT22;13143;50.924;5.320;2022-09-09T07:13:47;17.50;99.90
25192;DHT22;13143;50.924;5.320;2022-09-09T07:16:16;17.50;99.90
25192;DHT22;13143;50.924;5.320;2022-09-09T07:18:42;17.50;99.90
25192;DHT22;13143;50.924;5.320;2022-09-09T07:21:10;17.50;99.90
25192;DHT22;13143;50.924;5.320;2022-09-09T07:23:37;17.50;99.90
25192;DHT22;13143;50.924;5.320;2022-09-09T07:26:14;17.50;99.90
25192;DHT22;13143;50.924;5.320;2022-09-09T07:28:40;17.50;99.90
25192;DHT22;13143;50.924;5.320;2022-09-09T07:31:08;17.50;99.90
25192;DHT22;13143;50.924;5.320;2022-09-09T07:33:39;17.60;99.90
25192;DHT22;13143;50.924;5.320;2022-09-09T07:38:47;17.60;99.90
25192;DHT22;13143;50.924;5.320;2022-09-09T07:41:19;17.60;99.90
25192;DHT22;13143;50.924;5.320;2022-09-09T07:43:46;17.60;99.90
25192;DHT22;13143;50.924;5.320;2022-09-09T07:46:14;17.60;99.90
25192;DHT22;13143;50.924;5.320;2022-09-09T07:48:45;17.70;99.90
25192;DHT22;13143;50.924;5.320;2022-09-09T07:51:14;17.70;99.90
25192;DHT22;13143;50.924;5.320;2022-09-09T07:53:42;17.70;99.90
25192;DHT22;13143;50.924;5.320;2022-09-09T07:56:14;17.70;99.90
25192;DHT22;13143;50.924;5.320;2022-09-09T07:58:41;17.70;99.90
25192;DHT22;13143;50.924;5.320;2022-09-09T08:01:21;17.80;99.90
25192;DHT22;13143;50.924;5.320;2022-09-09T08:03:53;17.80;99.90
25192;DHT22;13143;50.924;5.320;2022-09-09T08:06:19;17.80;99.90
25192;DHT22;13143;50.924;5.320;2022-09-09T08:08:44;17.80;99.90
25192;DHT22;13143;50.924;5.320;2022-09-09T08:11:13;17.80;99.90
25192;DHT22;13143;50.924;5.320;2022-09-09T08:13:41;17.80;99.90
25192;DHT22;13143;50.924;5.320;2022-09-09T08:16:15;17.80;99.90
25192;DHT22;13143;50.924;5.320;2022-09-09T08:18:42;17.80;99.90
25192;DHT22;13143;50.924;5.320;2022-09-09T08:21:17;17.90;99.90
25192;DHT22;13143;50.924;5.320;2022-09-09T08:23:44;17.90;99.90
25192;DHT22;13143;50.924;5.320;2022-09-09T08:26:15;17.90;99.90
25192;DHT22;13143;50.924;5.320;2022-09-09T08:28:42;17.90;99.90
25192;DHT22;13143;50.924;5.320;2022-09-09T08:31:15;17.90;99.90
25192;DHT22;13143;50.924;5.320;2022-09-09T08:33:41;17.90;99.90
25192;DHT22;13143;50.924;5.320;2022-09-09T08:36:10;17.90;99.90
25192;DHT22;13143;50.924;5.320;2022-09-09T08:38:37;17.90;99.90
25192;DHT22;13143;50.924;5.320;2022-09-09T08:44:06;17.90;99.90
25192;DHT22;13143;50.924;5.320;2022-09-09T08:51:56;17.90;99.90
25192;DHT22;13143;50.924;5.320;2022-09-09T08:54:23;17.90;99.90
25192;DHT22;13143;50.924;5.320;2022-09-09T08:56:49;18.00;99.90
25192;DHT22;13143;50.924;5.320;2022-09-09T08:59:17;18.00;99.90
25192;DHT22;13143;50.924;5.320;2022-09-09T09:01:59;18.00;99.90
25192;DHT22;13143;50.924;5.320;2022-09-09T09:07:21;18.00;99.90
25192;DHT22;13143;50.924;5.320;2022-09-09T09:09:59;18.00;99.90
25192;DHT22;13143;50.924;5.320;2022-09-09T09:12:30;18.00;99.90
25192;DHT22;13143;50.924;5.320;2022-09-09T09:14:59;18.00;99.90
25192;DHT22;13143;50.924;5.320;2022-09-09T09:17:28;18.00;99.90
25192;DHT22;13143;50.924;5.320;2022-09-09T09:19:57;18.00;99.90
25192;DHT22;13143;50.924;5.320;2022-09-09T09:28:17;18.00;99.90
25192;DHT22;13143;50.924;5.320;2022-09-09T09:31:10;18.00;99.90
25192;DHT22;13143;50.924;5.320;2022-09-09T09:33:56;18.00;99.90
25192;DHT22;13143;50.924;5.320;2022-09-09T09:36:44;18.00;99.90
25192;DHT22;13143;50.924;5.320;2022-09-09T09:39:26;17.90;99.90
25192;DHT22;13143;50.924;5.320;2022-09-09T09:41:53;18.00;99.90
25192;DHT22;13143;50.924;5.320;2022-09-09T09:44:29;18.00;99.90
25192;DHT22;13143;50.924;5.320;2022-09-09T09:47:25;18.00;99.90
25192;DHT22;13143;50.924;5.320;2022-09-09T09:49:59;18.00;99.90
25192;DHT22;13143;50.924;5.320;2022-09-09T09:52:29;18.00;99.90
25192;DHT22;13143;50.924;5.320;2022-09-09T09:54:57;18.10;99.90
25192;DHT22;13143;50.924;5.320;2022-09-09T09:57:31;18.10;99.90
25192;DHT22;13143;50.924;5.320;2022-09-09T10:00:13;18.10;99.90
25192;DHT22;13143;50.924;5.320;2022-09-09T10:02:42;18.10;99.90
25192;DHT22;13143;50.924;5.320;2022-09-09T10:05:14;18.20;99.90
25192;DHT22;13143;50.924;5.320;2022-09-09T10:07:39;18.10;99.90
25192;DHT22;13143;50.924;5.320;2022-09-09T10:10:08;18.20;99.90
25192;DHT22;13143;50.924;5.320;2022-09-09T10:23:25;18.20;99.90
25192;DHT22;13143;50.924;5.320;2022-09-09T10:26:22;18.20;99.90
25192;DHT22;13143;50.924;5.320;2022-09-09T10:34:45;18.20;99.90
25192;DHT22;13143;50.924;5.320;2022-09-09T10:40:11;18.20;99.90
25192;DHT22;13143;50.924;5.320;2022-09-09T10:42:43;18.20;99.90
25192;DHT22;13143;50.924;5.320;2022-09-09T10:48:41;18.20;99.90
25192;DHT22;13143;50.924;5.320;2022-09-09T10:51:06;18.20;99.90
25192;DHT22;13143;50.924;5.320;2022-09-09T10:56:38;18.20;99.90
25192;DHT22;13143;50.924;5.320;2022-09-09T10:59:18;18.10;99.90
25192;DHT22;13143;50.924;5.320;2022-09-09T11:06:53;18.20;99.90
25192;DHT22;13143;50.924;5.320;2022-09-09T11:09:28;18.10;99.90
25192;DHT22;13143;50.924;5.320;2022-09-09T11:11:57;18.10;99.90
25192;DHT22;13143;50.924;5.320;2022-09-09T11:14:34;18.20;99.90
25192;DHT22;13143;50.924;5.320;2022-09-09T11:17:24;18.10;99.90
25192;DHT22;13143;50.924;5.320;2022-09-09T11:19:52;18.10;99.90
25192;DHT22;13143;50.924;5.320;2022-09-09T11:25:39;18.20;99.90
25192;DHT22;13143;50.924;5.320;2022-09-09T11:31:14;18.20;99.90
25192;DHT22;13143;50.924;5.320;2022-09-09T11:36:38;18.20;99.90
25192;DHT22;13143;50.924;5.320;2022-09-09T11:41:49;18.20;99.90
25192;DHT22;13143;50.924;5.320;2022-09-09T11:44:29;18.20;99.90
25192;DHT22;13143;50.924;5.320;2022-09-09T11:46:55;18.20;99.90
25192;DHT22;13143;50.924;5.320;2022-09-09T11:49:50;18.30;99.90
25192;DHT22;13143;50.924;5.320;2022-09-09T11:54:51;18.30;99.90
25192;DHT22;13143;50.924;5.320;2022-09-09T11:57:32;18.30;99.90
25192;DHT22;13143;50.924;5.320;2022-09-09T11:59:58;18.30;99.90
25192;DHT22;13143;50.924;5.320;2022-09-09T12:02:27;18.30;99.90
25192;DHT22;13143;50.924;5.320;2022-09-09T12:07:40;18.40;99.90
25192;DHT22;13143;50.924;5.320;2022-09-09T12:12:38;18.30;99.90
25192;DHT22;13143;50.924;5.320;2022-09-09T12:17:41;18.30;99.90
25192;DHT22;13143;50.924;5.320;2022-09-09T12:23:12;18.40;99.90
25192;DHT22;13143;50.924;5.320;2022-09-09T12:26:03;18.40;99.90
25192;DHT22;13143;50.924;5.320;2022-09-09T12:32:07;18.40;99.90
25192;DHT22;13143;50.924;5.320;2022-09-09T12:40:03;18.50;99.90
25192;DHT22;13143;50.924;5.320;2022-09-09T12:42:30;18.50;99.90
25192;DHT22;13143;50.924;5.320;2022-09-09T12:45:00;18.50;99.90
25192;DHT22;13143;50.924;5.320;2022-09-09T12:47:38;18.50;99.90
25192;DHT22;13143;50.924;5.320;2022-09-09T12:50:36;18.50;99.90
25192;DHT22;13143;50.924;5.320;2022-09-09T12:53:07;18.50;99.90
25192;DHT22;13143;50.924;5.320;2022-09-09T12:55:38;18.50;99.90
25192;DHT22;13143;50.924;5.320;2022-09-09T12:58:06;18.60;99.90
25192;DHT22;13143;50.924;5.320;2022-09-09T13:00:33;18.60;99.90
25192;DHT22;13143;50.924;5.320;2022-09-09T13:03:01;18.60;99.90
25192;DHT22;13143;50.924;5.320;2022-09-09T13:05:38;18.60;99.90
25192;DHT22;13143;50.924;5.320;2022-09-09T13:08:14;18.60;99.90
25192;DHT22;13143;50.924;5.320;2022-09-09T13:13:20;18.70;99.90
25192;DHT22;13143;50.924;5.320;2022-09-09T13:15:55;18.70;99.90
25192;DHT22;13143;50.924;5.320;2022-09-09T13:18:33;18.70;99.90
25192;DHT22;13143;50.924;5.320;2022-09-09T13:21:00;18.80;99.90
25192;DHT22;13143;50.924;5.320;2022-09-09T13:23:28;18.80;99.90
25192;DHT22;13143;50.924;5.320;2022-09-09T13:26:00;18.80;99.90
25192;DHT22;13143;50.924;5.320;2022-09-09T13:28:29;18.90;99.90
25192;DHT22;13143;50.924;5.320;2022-09-09T13:31:18;18.90;99.90
25192;DHT22;13143;50.924;5.320;2022-09-09T13:33:44;18.90;99.90
25192;DHT22;13143;50.924;5.320;2022-09-09T13:36:11;18.90;99.90
25192;DHT22;13143;50.924;5.320;2022-09-09T13:38:53;19.00;99.90
25192;DHT22;13143;50.924;5.320;2022-09-09T13:41:24;19.00;99.90
25192;DHT22;13143;50.924;5.320;2022-09-09T13:43:51;19.00;99.90
25192;DHT22;13143;50.924;5.320;2022-09-09T13:46:39;19.00;99.90
25192;DHT22;13143;50.924;5.320;2022-09-09T13:51:42;19.10;99.90
25192;DHT22;13143;50.924;5.320;2022-09-09T13:54:10;19.10;99.90
25192;DHT22;13143;50.924;5.320;2022-09-09T13:56:38;19.10;99.90
25192;DHT22;13143;50.924;5.320;2022-09-09T13:59:05;19.20;99.90
25192;DHT22;13143;50.924;5.320;2022-09-09T14:01:31;19.20;99.90
25192;DHT22;13143;50.924;5.320;2022-09-09T14:04:00;19.20;99.90
25192;DHT22;13143;50.924;5.320;2022-09-09T14:06:26;19.20;99.90
25192;DHT22;13143;50.924;5.320;2022-09-09T14:08:53;19.30;99.90
25192;DHT22;13143;50.924;5.320;2022-09-09T14:11:20;19.30;99.90
25192;DHT22;13143;50.924;5.320;2022-09-09T14:13:49;19.30;99.90
25192;DHT22;13143;50.924;5.320;2022-09-09T14:16:18;19.30;99.90
25192;DHT22;13143;50.924;5.320;2022-09-09T14:18:46;19.40;99.90
25192;DHT22;13143;50.924;5.320;2022-09-09T14:21:12;19.40;99.90
25192;DHT22;13143;50.924;5.320;2022-09-09T14:23:38;19.40;99.90
25192;DHT22;13143;50.924;5.320;2022-09-09T14:26:05;19.40;99.90
25192;DHT22;13143;50.924;5.320;2022-09-09T14:28:31;19.40;99.90
25192;DHT22;13143;50.924;5.320;2022-09-09T14:30:59;19.50;99.90
25192;DHT22;13143;50.924;5.320;2022-09-09T14:33:26;19.50;99.90
25192;DHT22;13143;50.924;5.320;2022-09-09T14:36:02;19.50;99.90
25192;DHT22;13143;50.924;5.320;2022-09-09T14:38:29;19.60;99.90
25192;DHT22;13143;50.924;5.320;2022-09-09T14:40:56;19.60;99.90
25192;DHT22;13143;50.924;5.320;2022-09-09T14:43:22;19.60;99.90
25192;DHT22;13143;50.924;5.320;2022-09-09T14:45:47;19.60;99.90
25192;DHT22;13143;50.924;5.320;2022-09-09T14:48:14;19.70;99.90
25192;DHT22;13143;50.924;5.320;2022-09-09T14:50:41;19.70;99.90
25192;DHT22;13143;50.924;5.320;2022-09-09T14:53:08;19.70;99.90
25192;DHT22;13143;50.924;5.320;2022-09-09T14:55:34;19.70;99.90
25192;DHT22;13143;50.924;5.320;2022-09-09T14:58:00;19.70;99.90
25192;DHT22;13143;50.924;5.320;2022-09-09T15:00:26;19.80;99.90
25192;DHT22;13143;50.924;5.320;2022-09-09T15:02:53;19.80;99.90
25192;DHT22;13143;50.924;5.320;2022-09-09T15:05:19;19.80;99.90
25192;DHT22;13143;50.924;5.320;2022-09-09T15:07:45;19.80;99.90
25192;DHT22;13143;50.924;5.320;2022-09-09T15:10:11;19.90;99.90
25192;DHT22;13143;50.924;5.320;2022-09-09T15:12:37;19.90;99.90
25192;DHT22;13143;50.924;5.320;2022-09-09T15:15:04;19.90;99.90
25192;DHT22;13143;50.924;5.320;2022-09-09T15:17:30;19.90;99.90
25192;DHT22;13143;50.924;5.320;2022-09-09T15:19:56;19.90;99.90
25192;DHT22;13143;50.924;5.320;2022-09-09T15:22:22;20.00;99.90
25192;DHT22;13143;50.924;5.320;2022-09-09T15:24:49;20.00;99.90
25192;DHT22;13143;50.924;5.320;2022-09-09T15:27:15;20.00;99.90
25192;DHT22;13143;50.924;5.320;2022-09-09T15:29:41;20.00;99.90
25192;DHT22;13143;50.924;5.320;2022-09-09T15:32:07;20.00;99.90
25192;DHT22;13143;50.924;5.320;2022-09-09T15:34:33;20.00;99.90
25192;DHT22;13143;50.924;5.320;2022-09-09T15:36:58;20.00;99.90
25192;DHT22;13143;50.924;5.320;2022-09-09T15:39:25;20.10;99.90
25192;DHT22;13143;50.924;5.320;2022-09-09T15:41:51;20.10;99.90
25192;DHT22;13143;50.924;5.320;2022-09-09T15:44:17;20.10;99.90
25192;DHT22;13143;50.924;5.320;2022-09-09T15:46:52;20.10;99.90
25192;DHT22;13143;50.924;5.320;2022-09-09T15:49:25;20.10;99.90
25192;DHT22;13143;50.924;5.320;2022-09-09T15:51:54;20.10;99.90
25192;DHT22;13143;50.924;5.320;2022-09-09T15:54:22;20.10;99.90
25192;DHT22;13143;50.924;5.320;2022-09-09T15:56:57;20.10;99.90
25192;DHT22;13143;50.924;5.320;2022-09-09T15:59:24;20.10;99.90
25192;DHT22;13143;50.924;5.320;2022-09-09T16:01:50;20.10;99.90
25192;DHT22;13143;50.924;5.320;2022-09-09T16:04:19;20.10;99.90
25192;DHT22;13143;50.924;5.320;2022-09-09T16:06:50;20.20;99.90
25192;DHT22;13143;50.924;5.320;2022-09-09T16:09:16;20.20;99.90
25192;DHT22;13143;50.924;5.320;2022-09-09T16:11:42;20.20;99.90
25192;DHT22;13143;50.924;5.320;2022-09-09T16:14:07;20.20;99.90
25192;DHT22;13143;50.924;5.320;2022-09-09T16:16:34;20.20;99.90
25192;DHT22;13143;50.924;5.320;2022-09-09T16:19:08;20.20;99.90
25192;DHT22;13143;50.924;5.320;2022-09-09T16:21:43;20.20;99.90
25192;DHT22;13143;50.924;5.320;2022-09-09T16:24:11;20.20;99.90
25192;DHT22;13143;50.924;5.320;2022-09-09T16:26:39;20.20;99.90
25192;DHT22;13143;50.924;5.320;2022-09-09T16:29:05;20.20;99.90
25192;DHT22;13143;50.924;5.320;2022-09-09T16:31:32;20.20;99.90
25192;DHT22;13143;50.924;5.320;2022-09-09T16:33:57;20.20;99.90
25192;DHT22;13143;50.924;5.320;2022-09-09T16:36:28;20.20;99.90
25192;DHT22;13143;50.924;5.320;2022-09-09T16:38:57;20.20;99.90
25192;DHT22;13143;50.924;5.320;2022-09-09T16:41:24;20.20;99.90
25192;DHT22;13143;50.924;5.320;2022-09-09T16:44:10;20.20;99.90
25192;DHT22;13143;50.924;5.320;2022-09-09T16:46:37;20.20;99.90
25192;DHT22;13143;50.924;5.320;2022-09-09T16:49:09;20.20;99.90
25192;DHT22;13143;50.924;5.320;2022-09-09T16:51:39;20.20;99.90
25192;DHT22;13143;50.924;5.320;2022-09-09T16:54:06;20.20;99.90
25192;DHT22;13143;50.924;5.320;2022-09-09T16:56:40;20.20;99.90
25192;DHT22;13143;50.924;5.320;2022-09-09T16:59:17;20.20;99.90
25192;DHT22;13143;50.924;5.320;2022-09-09T17:01:44;20.10;99.90
25192;DHT22;13143;50.924;5.320;2022-09-09T17:04:12;20.10;99.90
25192;DHT22;13143;50.924;5.320;2022-09-09T17:06:40;20.10;99.90
25192;DHT22;13143;50.924;5.320;2022-09-09T17:09:10;20.10;99.90
25192;DHT22;13143;50.924;5.320;2022-09-09T17:11:37;20.10;99.90
25192;DHT22;13143;50.924;5.320;2022-09-09T17:14:04;20.10;99.90
25192;DHT22;13143;50.924;5.320;2022-09-09T17:16:32;20.10;99.90
25192;DHT22;13143;50.924;5.320;2022-09-09T17:18:59;20.10;99.90
25192;DHT22;13143;50.924;5.320;2022-09-09T17:21:27;20.10;99.90
25192;DHT22;13143;50.924;5.320;2022-09-09T17:23:54;20.00;99.90
25192;DHT22;13143;50.924;5.320;2022-09-09T17:26:22;20.10;99.90
25192;DHT22;13143;50.924;5.320;2022-09-09T17:28:48;20.00;99.90
25192;DHT22;13143;50.924;5.320;2022-09-09T17:31:16;20.00;99.90
25192;DHT22;13143;50.924;5.320;2022-09-09T17:33:44;20.00;99.90
25192;DHT22;13143;50.924;5.320;2022-09-09T17:36:17;20.00;99.90
25192;DHT22;13143;50.924;5.320;2022-09-09T17:38:44;20.00;99.90
25192;DHT22;13143;50.924;5.320;2022-09-09T17:43:45;20.00;99.90
25192;DHT22;13143;50.924;5.320;2022-09-09T17:46:18;20.00;99.90
25192;DHT22;13143;50.924;5.320;2022-09-09T17:48:48;20.00;99.90
25192;DHT22;13143;50.924;5.320;2022-09-09T17:51:17;20.00;99.90
25192;DHT22;13143;50.924;5.320;2022-09-09T17:53:47;19.90;99.90
25192;DHT22;13143;50.924;5.320;2022-09-09T17:56:15;19.90;99.90
25192;DHT22;13143;50.924;5.320;2022-09-09T17:58:42;19.90;99.90